Time;durP1;ratioP1;P1;durP2;ratioP2;P2;SDS_P1;SDS_P2;PMS_P1;PMS_P2;Temp;Humidity;BMP_temperature;BMP_pressure;BME280_temperature;BME280_humidity;BME280_pressure;Samples;Min_cycle;Max_cycle;Signal;HPM_P1;HPM_P2
2022/05/09 00:00:07;;;;;;;6.70;2.50;;;12.00;99.90;;;;;;5064144;28;20253;-50
2022/05/09 00:02:34;;;;;;;9.47;2.60;;;12.20;99.90;;;;;;5065438;28;20635;-50
2022/05/09 00:05:01;;;;;;;6.63;2.53;;;12.20;99.90;;;;;;5063764;28;20570;-51
2022/05/09 00:07:28;;;;;;;11.63;2.73;;;12.10;99.90;;;;;;5066339;28;20993;-52
2022/05/09 00:09:55;;;;;;;6.50;2.47;;;12.10;99.90;;;;;;5062189;28;20803;-50
2022/05/09 00:12:22;;;;;;;6.10;2.23;;;12.00;99.90;;;;;;5068691;28;20298;-51
2022/05/09 00:14:48;;;;;;;6.63;2.53;;;12.10;99.90;;;;;;5067580;28;20639;-51
2022/05/09 00:17:15;;;;;;;7.37;3.30;;;12.10;99.90;;;;;;5061015;28;20242;-54
2022/05/09 00:19:42;;;;;;;6.67;4.00;;;12.00;99.90;;;;;;5059746;28;20267;-50
2022/05/09 00:22:09;;;;;;;9.20;3.83;;;12.00;99.90;;;;;;5064855;28;20648;-50
2022/05/09 00:24:36;;;;;;;5.10;3.13;;;12.00;99.90;;;;;;5066126;28;20252;-50
2022/05/09 00:27:03;;;;;;;10.57;4.00;;;11.80;99.90;;;;;;5069193;28;20298;-51
2022/05/09 00:29:30;;;;;;;7.00;2.40;;;11.80;99.90;;;;;;5068855;28;20219;-50
2022/05/09 00:31:57;;;;;;;8.83;2.83;;;11.90;99.90;;;;;;5067382;28;20653;-51
2022/05/09 00:34:24;;;;;;;12.17;2.63;;;11.80;99.90;;;;;;5059533;28;20239;-51
2022/05/09 00:36:52;;;;;;;8.43;3.20;;;11.70;99.90;;;;;;5064405;28;20241;-51
2022/05/09 00:39:19;;;;;;;4.33;2.07;;;11.70;99.90;;;;;;5058306;28;20283;-53
2022/05/09 00:41:46;;;;;;;8.73;2.40;;;11.70;99.90;;;;;;5057782;28;20244;-51
2022/05/09 00:44:27;;;;;;;7.20;2.70;;;11.70;99.90;;;;;;5066131;28;20289;-50
2022/05/09 00:46:56;;;;;;;6.90;2.23;;;11.80;99.90;;;;;;5044136;28;20252;-51
2022/05/09 00:49:27;;;;;;;7.23;2.43;;;11.80;99.90;;;;;;5061662;28;20334;-49
2022/05/09 00:52:24;;;;;;;8.13;2.50;;;11.70;99.90;;;;;;5063436;28;20239;-51
2022/05/09 00:55:00;;;;;;;9.90;2.63;;;11.70;99.90;;;;;;5065617;28;20228;-50
2022/05/09 00:57:40;;;;;;;7.97;2.23;;;11.80;99.90;;;;;;5056261;28;20198;-50
2022/05/09 01:00:11;;;;;;;6.23;2.50;;;11.70;99.90;;;;;;5063431;28;20291;-50
2022/05/09 01:02:41;;;;;;;5.80;2.87;;;11.70;99.90;;;;;;5058922;28;20201;-50
2022/05/09 01:05:09;;;;;;;6.93;2.40;;;11.70;99.90;;;;;;5062120;28;20298;-51
2022/05/09 01:07:36;;;;;;;6.30;2.33;;;11.60;99.90;;;;;;5064542;28;20199;-49
2022/05/09 01:10:03;;;;;;;3.73;1.87;;;11.70;99.90;;;;;;5062592;28;20599;-51
2022/05/09 01:12:34;;;;;;;6.60;2.33;;;11.60;99.90;;;;;;5058768;28;20195;-51
2022/05/09 01:15:07;;;;;;;7.43;2.60;;;11.60;99.90;;;;;;5064871;28;20210;-50
2022/05/09 01:17:39;;;;;;;8.77;2.60;;;11.60;99.90;;;;;;5055487;28;20656;-50
2022/05/09 01:20:09;;;;;;;8.27;2.67;;;11.60;99.90;;;;;;5064178;28;20210;-52
2022/05/09 01:22:38;;;;;;;6.20;2.30;;;11.50;99.90;;;;;;5062070;28;20969;-50
2022/05/09 01:25:09;;;;;;;5.53;2.33;;;11.60;99.90;;;;;;5060260;28;20215;-51
2022/05/09 01:27:38;;;;;;;7.90;3.33;;;11.60;99.90;;;;;;5062944;28;20196;-53
2022/05/09 01:30:14;;;;;;;7.53;2.47;;;11.40;99.90;;;;;;5059502;28;20202;-51
2022/05/09 01:32:56;;;;;;;8.60;4.00;;;11.40;99.90;;;;;;5065556;28;20197;-51
2022/05/09 01:35:34;;;;;;;4.67;2.80;;;11.40;99.90;;;;;;5059919;28;20243;-51
2022/05/09 01:38:18;;;;;;;10.10;2.77;;;11.30;99.90;;;;;;5062104;28;20582;-50
2022/05/09 01:40:45;;;;;;;9.33;2.27;;;11.30;99.90;;;;;;5062542;28;20288;-50
2022/05/09 01:43:12;;;;;;;5.90;2.47;;;11.40;99.90;;;;;;5063741;28;20546;-51
2022/05/09 01:45:39;;;;;;;7.20;2.70;;;11.40;99.90;;;;;;5062961;28;20217;-49
2022/05/09 01:50:51;;;;;;;7.67;2.50;;;11.30;99.90;;;;;;5062799;28;20293;-51
2022/05/09 01:53:18;;;;;;;9.13;2.77;;;11.40;99.90;;;;;;5064793;28;20281;-51
2022/05/09 01:55:44;;;;;;;6.40;2.40;;;11.30;99.90;;;;;;5064418;28;20198;-51
2022/05/09 01:58:11;;;;;;;6.33;2.10;;;11.20;99.90;;;;;;5064585;28;20290;-51
2022/05/09 02:00:38;;;;;;;8.50;2.43;;;11.20;99.90;;;;;;5044664;28;20276;-50
2022/05/09 02:03:05;;;;;;;6.83;3.30;;;11.10;99.90;;;;;;5064916;28;20246;-52
2022/05/09 02:05:32;;;;;;;8.20;4.00;;;11.10;99.90;;;;;;5059834;28;20307;-51
2022/05/09 02:07:59;;;;;;;9.17;2.70;;;10.90;99.90;;;;;;5060840;28;20229;-50
2022/05/09 02:10:26;;;;;;;9.50;2.70;;;10.90;99.90;;;;;;5065199;28;20200;-50
2022/05/09 02:12:53;;;;;;;9.23;2.83;;;10.90;99.90;;;;;;5061085;28;20203;-52
2022/05/09 02:15:20;;;;;;;6.87;2.70;;;10.90;99.90;;;;;;5059122;28;20373;-51
2022/05/09 02:17:47;;;;;;;5.70;2.70;;;10.90;99.90;;;;;;5054813;28;20198;-51
2022/05/09 02:20:14;;;;;;;6.97;2.90;;;11.00;99.90;;;;;;5060662;28;20210;-49
2022/05/09 02:22:41;;;;;;;7.73;2.40;;;11.00;99.90;;;;;;5056633;28;20304;-50
2022/05/09 02:25:26;;;;;;;8.43;2.83;;;11.00;99.90;;;;;;5061698;28;20214;-52
2022/05/09 02:27:53;;;;;;;6.10;2.57;;;10.90;99.90;;;;;;5047818;28;20654;-50
2022/05/09 02:30:20;;;;;;;7.47;2.60;;;10.70;99.90;;;;;;5066249;28;20224;-51
2022/05/09 02:32:47;;;;;;;5.03;2.77;;;10.70;99.90;;;;;;5064222;28;20235;-51
2022/05/09 02:35:15;;;;;;;6.80;2.77;;;10.80;99.90;;;;;;5062030;28;20277;-51
2022/05/09 02:37:42;;;;;;;6.57;2.83;;;10.70;99.90;;;;;;5065826;28;20246;-51
2022/05/09 02:40:09;;;;;;;7.73;2.90;;;10.70;99.90;;;;;;5065529;28;22757;-52
2022/05/09 02:42:37;;;;;;;6.70;2.40;;;10.70;99.90;;;;;;5068017;28;20631;-51
2022/05/09 02:45:04;;;;;;;11.73;3.37;;;10.70;99.90;;;;;;5060096;28;20824;-50
2022/05/09 02:47:31;;;;;;;14.57;2.73;;;10.60;99.90;;;;;;5068698;28;20205;-50
2022/05/09 02:49:58;;;;;;;6.70;3.57;;;10.60;99.90;;;;;;5064555;28;20609;-49
2022/05/09 02:52:25;;;;;;;8.03;2.90;;;10.70;99.90;;;;;;5067118;28;20203;-51
2022/05/09 02:54:52;;;;;;;4.67;2.47;;;10.80;99.90;;;;;;5067955;28;20291;-51
2022/05/09 02:57:19;;;;;;;9.73;3.00;;;10.70;99.90;;;;;;5064665;28;20221;-50
2022/05/09 02:59:45;;;;;;;8.60;2.40;;;10.60;99.90;;;;;;5069657;28;20568;-52
2022/05/09 03:02:12;;;;;;;12.10;2.50;;;10.60;99.90;;;;;;5068039;28;20681;-51
2022/05/09 03:04:39;;;;;;;10.50;3.13;;;10.60;99.90;;;;;;5066191;28;20321;-53
2022/05/09 03:07:13;;;;;;;10.33;3.43;;;10.50;99.90;;;;;;5067653;28;20246;-52
2022/05/09 03:09:42;;;;;;;9.13;2.77;;;10.60;99.90;;;;;;5057804;28;20289;-54
2022/05/09 03:12:10;;;;;;;6.73;2.67;;;10.60;99.90;;;;;;5060613;28;20674;-53
2022/05/09 03:14:38;;;;;;;7.10;3.23;;;10.60;99.90;;;;;;5066026;28;20704;-53
2022/05/09 03:17:06;;;;;;;5.13;2.80;;;10.50;99.90;;;;;;5058176;28;20203;-50
2022/05/09 03:19:34;;;;;;;11.13;3.10;;;10.40;99.90;;;;;;5066008;28;20222;-53
2022/05/09 03:22:01;;;;;;;10.03;3.60;;;10.50;99.90;;;;;;5061741;28;20317;-53
2022/05/09 03:24:28;;;;;;;9.50;2.90;;;10.40;99.90;;;;;;5065545;28;20294;-51
2022/05/09 03:26:55;;;;;;;8.37;3.10;;;10.40;99.90;;;;;;5041469;28;20330;-51
2022/05/09 03:29:24;;;;;;;7.20;3.33;;;10.40;99.90;;;;;;5061660;28;20294;-53
2022/05/09 03:31:52;;;;;;;9.83;2.67;;;10.40;99.90;;;;;;5059675;28;20206;-52
2022/05/09 03:34:20;;;;;;;7.30;2.77;;;10.30;99.90;;;;;;5058804;28;20207;-52
2022/05/09 03:36:47;;;;;;;9.23;3.30;;;10.30;99.90;;;;;;5067177;28;20224;-52
2022/05/09 03:39:14;;;;;;;10.23;2.57;;;10.40;99.90;;;;;;5060981;28;20253;-51
2022/05/09 03:41:41;;;;;;;8.97;3.13;;;10.40;99.90;;;;;;5062925;28;20293;-52
2022/05/09 03:44:08;;;;;;;13.27;3.33;;;10.30;99.90;;;;;;5064133;28;20289;-52
2022/05/09 03:46:37;;;;;;;8.50;3.47;;;10.20;99.90;;;;;;5068256;28;20223;-53
2022/05/09 03:49:04;;;;;;;10.50;3.13;;;10.10;99.90;;;;;;5065464;28;20205;-52
2022/05/09 03:51:31;;;;;;;7.40;3.00;;;10.20;99.90;;;;;;5060642;28;20198;-51
2022/05/09 03:53:58;;;;;;;8.43;3.50;;;10.20;99.90;;;;;;5064359;28;20593;-51
2022/05/09 03:56:24;;;;;;;5.93;3.83;;;10.20;99.90;;;;;;5039112;28;20205;-52
2022/05/09 03:58:51;;;;;;;8.63;3.87;;;10.20;99.90;;;;;;5043883;28;20298;-52
2022/05/09 04:01:18;;;;;;;9.43;3.20;;;10.40;99.90;;;;;;5068065;28;20729;-50
2022/05/09 04:03:46;;;;;;;7.37;3.33;;;10.30;99.90;;;;;;5039776;28;20218;-50
2022/05/09 04:06:13;;;;;;;6.90;2.93;;;10.20;99.90;;;;;;5061573;28;20243;-53
2022/05/09 04:08:40;;;;;;;9.47;3.83;;;10.20;99.90;;;;;;5058162;28;20667;-52
2022/05/09 04:11:07;;;;;;;8.03;3.10;;;10.30;99.90;;;;;;5062117;28;20222;-51
2022/05/09 04:13:34;;;;;;;9.37;3.60;;;10.30;99.90;;;;;;5060607;28;20739;-52
2022/05/09 04:18:46;;;;;;;9.57;3.30;;;10.30;99.90;;;;;;5063492;28;20206;-51
2022/05/09 04:21:14;;;;;;;9.23;3.27;;;10.30;99.90;;;;;;5065196;28;20237;-53
2022/05/09 04:23:41;;;;;;;9.80;3.07;;;10.40;99.90;;;;;;5059986;28;20285;-52
2022/05/09 04:26:10;;;;;;;8.77;3.37;;;10.40;99.90;;;;;;5063933;28;20253;-49
2022/05/09 04:28:36;;;;;;;9.37;3.30;;;10.40;99.90;;;;;;5067761;28;20257;-51
2022/05/09 04:31:03;;;;;;;12.67;3.50;;;10.40;99.90;;;;;;5058383;28;20285;-52
2022/05/09 04:33:30;;;;;;;7.60;2.73;;;10.40;99.90;;;;;;5060996;28;20721;-52
2022/05/09 04:35:58;;;;;;;12.60;3.43;;;10.20;99.90;;;;;;5066186;28;20241;-51
2022/05/09 04:38:25;;;;;;;7.47;3.20;;;10.30;99.90;;;;;;5058775;28;20206;-50
2022/05/09 04:40:54;;;;;;;15.43;4.33;;;10.20;99.90;;;;;;5037047;28;20272;-51
2022/05/09 04:43:23;;;;;;;11.77;3.80;;;10.40;99.90;;;;;;5067323;28;20463;-53
2022/05/09 04:45:51;;;;;;;13.63;3.97;;;10.30;99.90;;;;;;5069591;28;20332;-52
2022/05/09 04:48:19;;;;;;;10.40;3.70;;;10.50;99.90;;;;;;5066369;28;20221;-50
2022/05/09 04:50:46;;;;;;;14.90;4.50;;;10.50;99.90;;;;;;5066157;28;20322;-52
2022/05/09 04:53:14;;;;;;;10.40;3.40;;;10.30;99.90;;;;;;5064709;28;20611;-51
2022/05/09 04:55:40;;;;;;;11.67;3.97;;;10.40;99.90;;;;;;5068496;28;20650;-56
2022/05/09 04:58:12;;;;;;;11.07;3.60;;;10.40;99.90;;;;;;5066530;28;20207;-51
2022/05/09 05:00:39;;;;;;;6.80;3.07;;;10.30;99.90;;;;;;5059184;28;20333;-52
2022/05/09 05:03:06;;;;;;;12.40;3.70;;;10.40;99.90;;;;;;5049615;28;20302;-51
2022/05/09 05:05:33;;;;;;;9.97;3.70;;;10.50;99.90;;;;;;5053774;28;20206;-52
2022/05/09 05:08:00;;;;;;;8.80;3.50;;;10.60;99.90;;;;;;5059802;28;20203;-52
2022/05/09 05:10:28;;;;;;;11.77;3.30;;;10.50;99.90;;;;;;5043309;28;20218;-52
2022/05/09 05:12:56;;;;;;;8.10;3.67;;;10.60;99.90;;;;;;5066172;28;20646;-57
2022/05/09 05:15:27;;;;;;;10.60;3.70;;;10.60;99.90;;;;;;5061564;28;20949;-52
2022/05/09 05:17:54;;;;;;;13.13;3.70;;;10.60;99.90;;;;;;5060486;28;20669;-53
2022/05/09 05:20:22;;;;;;;11.23;4.10;;;10.80;99.90;;;;;;5059793;28;20198;-52
2022/05/09 05:22:49;;;;;;;9.57;4.10;;;10.70;99.90;;;;;;5055498;28;20312;-52
2022/05/09 05:25:24;;;;;;;11.80;3.37;;;10.70;99.90;;;;;;5058202;28;20590;-51
2022/05/09 05:27:51;;;;;;;12.90;3.70;;;10.90;99.90;;;;;;5061156;28;20210;-52
2022/05/09 05:30:18;;;;;;;11.10;4.87;;;11.00;99.90;;;;;;5058635;28;20298;-50
2022/05/09 05:32:47;;;;;;;9.93;3.90;;;11.00;99.90;;;;;;5061443;28;20234;-51
2022/05/09 05:35:18;;;;;;;11.13;3.80;;;11.10;99.90;;;;;;5059976;28;20302;-50
2022/05/09 05:37:45;;;;;;;7.47;3.57;;;11.20;99.90;;;;;;5040807;28;20295;-51
2022/05/09 05:40:13;;;;;;;6.50;3.23;;;11.30;99.90;;;;;;5045546;28;20635;-51
2022/05/09 05:42:41;;;;;;;7.97;3.67;;;11.30;99.90;;;;;;5058146;28;20656;-49
2022/05/09 05:45:09;;;;;;;10.23;4.10;;;11.30;99.90;;;;;;5054830;28;20257;-49
2022/05/09 05:47:36;;;;;;;7.90;3.20;;;11.30;99.90;;;;;;5060580;28;20264;-50
2022/05/09 05:50:06;;;;;;;8.00;3.90;;;11.40;99.90;;;;;;5050396;28;22220;-51
2022/05/09 05:52:33;;;;;;;9.37;4.10;;;11.50;99.90;;;;;;5029844;28;20855;-52
2022/05/09 05:55:03;;;;;;;7.97;3.53;;;11.50;99.90;;;;;;5034392;28;20202;-52
2022/05/09 05:57:32;;;;;;;6.73;3.70;;;11.60;99.90;;;;;;5035614;28;20231;-54
2022/05/09 06:00:05;;;;;;;10.07;3.53;;;11.60;99.90;;;;;;5031708;28;20580;-53
2022/05/09 06:02:33;;;;;;;8.80;3.50;;;11.60;99.90;;;;;;5024358;28;20234;-52
2022/05/09 06:05:00;;;;;;;11.53;3.97;;;11.60;99.90;;;;;;5036165;28;20286;-52
2022/05/09 06:07:26;;;;;;;11.33;4.20;;;11.70;99.90;;;;;;5020475;28;20225;-54
2022/05/09 06:09:53;;;;;;;9.40;4.03;;;11.70;99.90;;;;;;5040662;28;20302;-51
2022/05/09 06:12:21;;;;;;;7.60;3.70;;;11.70;99.90;;;;;;5044290;28;20222;-54
2022/05/09 06:15:24;;;;;;;8.37;3.70;;;11.80;99.90;;;;;;5046245;28;20288;-51
2022/05/09 06:17:37;;;;;;;12.73;4.23;;;11.80;99.90;;;;;;5043221;28;20294;-52
2022/05/09 06:20:06;;;;;;;8.87;3.43;;;11.80;99.90;;;;;;5043724;28;20297;-52
2022/05/09 06:22:37;;;;;;;8.13;4.23;;;12.00;99.90;;;;;;5043340;28;20686;-53
2022/05/09 06:25:11;;;;;;;11.50;4.90;;;12.10;99.90;;;;;;5046781;28;20290;-54
2022/05/09 06:27:39;;;;;;;10.23;4.13;;;12.00;99.90;;;;;;5040203;28;20211;-51
2022/05/09 06:30:09;;;;;;;12.83;5.10;;;12.10;99.90;;;;;;5045218;28;20238;-52
2022/05/09 06:32:37;;;;;;;9.97;4.60;;;12.30;99.90;;;;;;5050675;28;20256;-52
2022/05/09 06:35:06;;;;;;;14.73;4.50;;;12.50;99.90;;;;;;5028178;28;20314;-51
2022/05/09 06:37:35;;;;;;;9.03;3.47;;;12.70;99.90;;;;;;5046066;28;20232;-52
2022/05/09 06:40:03;;;;;;;11.27;4.47;;;12.80;99.90;;;;;;5046847;28;20641;-50
2022/05/09 06:42:31;;;;;;;7.60;4.40;;;12.90;99.90;;;;;;5043027;28;20211;-51
2022/05/09 06:44:58;;;;;;;7.50;3.90;;;12.90;99.90;;;;;;5048129;28;20236;-52
2022/05/09 06:47:24;;;;;;;9.97;4.10;;;13.00;99.90;;;;;;5042909;28;20303;-52
2022/05/09 06:49:51;;;;;;;9.70;4.40;;;13.30;99.90;;;;;;5026009;28;20233;-50
2022/05/09 06:52:18;;;;;;;10.27;4.20;;;13.60;99.90;;;;;;5068247;28;20267;-53
2022/05/09 06:54:45;;;;;;;13.43;4.03;;;13.90;99.90;;;;;;5067372;28;20651;-51
2022/05/09 06:57:12;;;;;;;9.77;4.33;;;13.90;99.90;;;;;;5066075;28;20201;-51
2022/05/09 06:59:38;;;;;;;10.57;4.43;;;14.00;99.90;;;;;;5063425;28;20245;-52
2022/05/09 07:02:06;;;;;;;10.70;3.97;;;14.40;99.90;;;;;;5066565;28;20287;-53
2022/05/09 07:04:33;;;;;;;11.77;4.17;;;15.00;99.90;;;;;;5063531;28;20206;-53
2022/05/09 07:06:59;;;;;;;11.40;5.20;;;15.10;99.90;;;;;;5061861;28;20218;-50
2022/05/09 07:09:26;;;;;;;14.53;5.03;;;15.30;99.90;;;;;;5055716;28;20203;-52
2022/05/09 07:11:54;;;;;;;9.30;4.23;;;15.50;99.90;;;;;;5052778;28;20226;-52
2022/05/09 07:14:22;;;;;;;5.30;4.23;;;15.80;99.90;;;;;;5061606;28;20207;-49
2022/05/09 07:16:49;;;;;;;9.20;3.97;;;15.80;99.90;;;;;;5060949;28;20308;-53
2022/05/09 07:19:16;;;;;;;8.10;4.37;;;16.00;99.90;;;;;;5039913;28;20205;-52
2022/05/09 07:21:43;;;;;;;9.33;4.17;;;15.90;99.90;;;;;;5061829;28;20909;-51
2022/05/09 07:24:11;;;;;;;10.63;4.60;;;16.00;99.90;;;;;;5058767;28;20276;-53
2022/05/09 07:26:37;;;;;;;10.60;4.30;;;16.50;99.90;;;;;;5064151;28;20673;-51
2022/05/09 07:29:05;;;;;;;11.77;4.80;;;16.60;99.90;;;;;;5066969;28;20233;-52
2022/05/09 07:31:33;;;;;;;10.47;4.50;;;16.70;99.90;;;;;;5045449;28;20230;-52
2022/05/09 07:34:00;;;;;;;11.83;5.07;;;16.70;99.90;;;;;;5063187;28;20874;-50
2022/05/09 07:36:28;;;;;;;7.83;4.33;;;16.50;99.90;;;;;;5062742;28;20637;-51
2022/05/09 07:38:54;;;;;;;11.30;4.67;;;17.00;99.90;;;;;;5058420;28;20685;-52
2022/05/09 07:41:21;;;;;;;11.50;4.87;;;16.70;99.90;;;;;;5064188;28;20302;-52
2022/05/09 07:43:50;;;;;;;16.73;4.90;;;16.40;99.90;;;;;;5063363;28;20234;-51
2022/05/09 07:46:17;;;;;;;9.03;3.93;;;16.60;99.90;;;;;;5064301;28;20318;-52
2022/05/09 07:49:03;;;;;;;12.70;5.33;;;16.50;99.90;;;;;;5062097;28;20230;-52
2022/05/09 07:51:30;;;;;;;9.77;4.60;;;16.60;99.90;;;;;;5064804;28;20244;-51
2022/05/09 07:53:57;;;;;;;17.50;4.70;;;17.10;99.90;;;;;;5066593;28;20230;-52
2022/05/09 07:56:24;;;;;;;10.47;4.77;;;17.30;99.90;;;;;;5066370;28;20278;-52
2022/05/09 07:58:50;;;;;;;10.77;4.73;;;17.30;99.90;;;;;;5064305;28;20223;-52
2022/05/09 08:01:17;;;;;;;8.70;4.50;;;17.30;99.90;;;;;;5066382;28;20707;-51
2022/05/09 08:03:44;;;;;;;10.90;4.33;;;17.60;99.90;;;;;;5063653;28;20654;-51
2022/05/09 08:06:11;;;;;;;9.20;5.03;;;18.00;99.90;;;;;;5066881;28;20218;-51
2022/05/09 08:08:40;;;;;;;13.70;5.73;;;18.20;99.90;;;;;;5060981;28;20314;-52
2022/05/09 08:11:11;;;;;;;11.33;4.90;;;18.00;99.90;;;;;;5065782;28;20202;-51
2022/05/09 08:13:40;;;;;;;9.10;4.80;;;18.60;99.90;;;;;;5064623;28;20227;-52
2022/05/09 08:16:08;;;;;;;10.00;4.37;;;18.70;99.90;;;;;;5065519;28;20210;-53
2022/05/09 08:18:35;;;;;;;7.63;4.43;;;18.90;99.90;;;;;;5064482;28;20199;-52
2022/05/09 08:21:04;;;;;;;9.17;4.53;;;18.90;99.90;;;;;;5065906;28;20615;-55
2022/05/09 08:23:31;;;;;;;8.97;5.40;;;18.90;99.90;;;;;;5042873;28;20236;-50
2022/05/09 08:26:02;;;;;;;15.00;5.47;;;18.60;99.90;;;;;;5064642;28;20684;-50
2022/05/09 08:28:30;;;;;;;9.67;4.97;;;19.00;99.90;;;;;;5049519;28;20305;-51
2022/05/09 08:30:57;;;;;;;11.63;5.17;;;19.20;99.90;;;;;;5066101;28;20218;-51
2022/05/09 08:33:27;;;;;;;9.80;4.50;;;19.20;99.90;;;;;;5061675;28;20230;-52
2022/05/09 08:35:55;;;;;;;9.30;4.80;;;19.40;99.90;;;;;;5050451;28;20318;-52
2022/05/09 08:38:22;;;;;;;10.83;4.40;;;19.60;99.90;;;;;;5062939;28;20683;-51
2022/05/09 08:41:05;;;;;;;8.60;4.07;;;19.10;99.90;;;;;;5062061;28;20294;-50
2022/05/09 08:43:44;;;;;;;7.77;3.87;;;19.80;99.90;;;;;;5060699;28;20229;-52
2022/05/09 08:46:44;;;;;;;7.43;3.63;;;20.40;99.90;;;;;;5063108;28;20294;-53
2022/05/09 08:49:34;;;;;;;8.73;4.43;;;20.50;99.90;;;;;;5061317;28;20199;-51
2022/05/09 08:52:22;;;;;;;8.10;3.83;;;20.20;99.90;;;;;;5055440;28;20596;-54
2022/05/09 08:54:51;;;;;;;9.40;4.20;;;20.80;99.90;;;;;;5040349;28;20357;-53
2022/05/09 08:57:34;;;;;;;9.43;3.70;;;20.70;99.90;;;;;;5040814;28;20235;-53
2022/05/09 09:00:07;;;;;;;8.17;3.70;;;21.10;99.90;;;;;;5037466;28;20295;-53
2022/05/09 09:02:55;;;;;;;9.37;3.83;;;21.20;99.90;;;;;;5045232;28;20196;-52
2022/05/09 09:05:25;;;;;;;9.93;4.80;;;21.20;99.90;;;;;;5035727;28;20601;-52
2022/05/09 09:08:17;;;;;;;9.40;5.17;;;21.40;99.90;;;;;;5038725;28;20636;-53
2022/05/09 09:10:49;;;;;;;5.80;3.20;;;21.00;99.90;;;;;;5041244;28;20568;-51
2022/05/09 09:13:54;;;;;;;7.53;3.43;;;21.30;99.90;;;;;;5055117;28;20650;-53
2022/05/09 09:16:27;;;;;;;7.37;2.77;;;20.80;99.90;;;;;;5019953;28;20570;-53
2022/05/09 09:19:25;;;;;;;5.57;2.87;;;21.30;99.90;;;;;;5042120;28;20207;-51
2022/05/09 09:22:10;;;;;;;7.20;3.00;;;21.50;99.90;;;;;;5037227;28;20252;-51
2022/05/09 09:25:07;;;;;;;8.73;3.33;;;21.20;99.90;;;;;;5035163;28;20283;-53
2022/05/09 09:27:49;;;;;;;10.43;3.30;;;20.40;99.90;;;;;;5032894;28;20197;-52
2022/05/09 09:30:19;;;;;;;7.27;3.90;;;20.70;99.90;;;;;;5041327;28;20243;-52
2022/05/09 09:33:00;;;;;;;7.53;4.40;;;21.50;99.90;;;;;;5039111;28;20658;-53
2022/05/09 09:35:45;;;;;;;7.60;3.50;;;21.30;99.90;;;;;;5034919;28;20344;-53
2022/05/09 09:38:33;;;;;;;8.03;3.80;;;21.70;99.90;;;;;;5037940;28;20695;-53
2022/05/09 09:41:23;;;;;;;8.13;2.93;;;21.40;99.90;;;;;;5037240;28;20239;-53
2022/05/09 09:43:59;;;;;;;9.77;3.43;;;21.30;99.90;;;;;;5043232;28;20238;-52
2022/05/09 09:46:26;;;;;;;10.53;3.40;;;21.30;99.90;;;;;;5043271;28;20291;-51
2022/05/09 09:49:07;;;;;;;6.87;3.53;;;20.70;99.90;;;;;;5038704;28;20272;-52
2022/05/09 09:51:45;;;;;;;7.00;3.43;;;21.80;99.90;;;;;;5036345;28;20699;-52
2022/05/09 09:54:16;;;;;;;7.33;3.13;;;21.70;99.90;;;;;;5038202;28;20515;-52
2022/05/09 09:56:43;;;;;;;6.67;2.90;;;21.80;99.90;;;;;;5035950;28;20279;-52
2022/05/09 09:59:31;;;;;;;8.67;3.40;;;21.80;99.90;;;;;;5041123;28;20694;-50
2022/05/09 10:02:16;;;;;;;3.67;2.83;;;22.10;99.90;;;;;;5031073;28;20299;-52
2022/05/09 10:04:44;;;;;;;7.53;3.40;;;21.80;99.90;;;;;;5022788;28;20208;-51
2022/05/09 10:07:16;;;;;;;6.80;3.67;;;21.90;99.90;;;;;;5023625;28;20200;-52
2022/05/09 10:10:23;;;;;;;5.23;3.47;;;21.80;99.90;;;;;;5026236;28;20197;-52
2022/05/09 10:12:54;;;;;;;5.43;3.10;;;21.30;99.90;;;;;;4990498;28;20210;-53
2022/05/09 10:15:23;;;;;;;5.77;3.30;;;21.20;99.90;;;;;;4983219;28;20701;-51
2022/05/09 10:17:51;;;;;;;7.97;3.43;;;21.30;99.90;;;;;;4979943;28;20297;-52
2022/05/09 10:20:27;;;;;;;7.90;4.10;;;21.60;99.90;;;;;;4982436;28;20665;-52
2022/05/09 10:26:22;;;;;;;8.87;3.47;;;21.30;99.90;;;;;;4983670;28;20256;-51
2022/05/09 10:28:54;;;;;;;6.63;3.30;;;21.40;99.90;;;;;;4967525;28;20206;-51
2022/05/09 10:31:27;;;;;;;9.30;3.50;;;21.30;99.90;;;;;;4983732;28;20293;-53
2022/05/09 10:34:01;;;;;;;8.17;3.50;;;21.50;99.90;;;;;;4980783;28;20212;-52
2022/05/09 10:36:34;;;;;;;7.83;3.43;;;21.40;99.90;;;;;;4985592;28;20228;-52
2022/05/09 10:39:19;;;;;;;6.63;3.40;;;21.70;99.90;;;;;;4984569;28;20202;-51
2022/05/09 10:41:50;;;;;;;9.80;3.37;;;21.60;99.90;;;;;;4983493;28;20285;-52
2022/05/09 10:44:44;;;;;;;9.47;3.83;;;21.60;99.90;;;;;;5012851;28;20213;-52
2022/05/09 10:47:21;;;;;;;9.43;3.23;;;21.70;99.90;;;;;;5026856;28;20614;-51
2022/05/09 10:50:14;;;;;;;8.37;3.77;;;21.90;99.90;;;;;;5025297;28;20291;-52
2022/05/09 10:53:03;;;;;;;5.83;2.63;;;21.90;99.90;;;;;;5017109;28;20200;-52
2022/05/09 10:55:38;;;;;;;7.20;3.13;;;22.00;99.90;;;;;;5015094;28;20292;-52
2022/05/09 10:58:28;;;;;;;9.67;3.53;;;22.00;99.90;;;;;;5022335;28;20311;-53
2022/05/09 11:01:01;;;;;;;6.10;4.10;;;22.50;99.90;;;;;;5021600;28;20369;-53
2022/05/09 11:03:37;;;;;;;9.93;4.83;;;22.50;99.90;;;;;;5024259;28;20231;-51
2022/05/09 11:06:13;;;;;;;8.53;4.40;;;22.60;99.90;;;;;;5031677;28;20261;-52
2022/05/09 11:09:01;;;;;;;7.70;3.63;;;22.70;99.90;;;;;;5022141;28;20632;-52
2022/05/09 11:11:44;;;;;;;7.57;3.60;;;23.00;99.90;;;;;;5029082;28;20627;-53
2022/05/09 11:14:33;;;;;;;8.83;4.00;;;22.70;99.90;;;;;;5022097;28;20207;-53
2022/05/09 11:17:48;;;;;;;10.43;3.47;;;23.10;99.90;;;;;;5023697;28;20232;-53
2022/05/09 11:20:47;;;;;;;6.97;3.50;;;23.30;99.90;;;;;;5018641;28;20197;-53
2022/05/09 11:23:44;;;;;;;8.53;4.83;;;23.70;99.90;;;;;;5013692;28;20267;-52
2022/05/09 11:26:37;;;;;;;8.80;4.00;;;23.50;99.90;;;;;;5027531;28;20346;-53
2022/05/09 11:29:25;;;;;;;4.77;4.00;;;23.70;99.90;;;;;;5019066;28;20382;-53
2022/05/09 11:32:01;;;;;;;8.10;3.87;;;24.30;99.90;;;;;;5019884;28;20234;-52
2022/05/09 11:34:39;;;;;;;6.93;3.77;;;24.20;99.90;;;;;;5022673;28;20195;-51
2022/05/09 11:37:23;;;;;;;9.83;4.00;;;24.00;99.90;;;;;;5025598;28;20197;-55
2022/05/09 11:40:06;;;;;;;7.83;3.87;;;23.50;99.90;;;;;;5025787;28;20646;-52
2022/05/09 11:46:01;;;;;;;8.30;4.00;;;23.40;99.90;;;;;;5024195;28;20206;-54
2022/05/09 11:48:43;;;;;;;6.73;3.80;;;24.50;99.90;;;;;;5024702;28;20200;-55
2022/05/09 11:51:19;;;;;;;7.50;4.47;;;24.80;99.90;;;;;;5023738;28;20860;-52
2022/05/09 11:53:50;;;;;;;8.53;4.13;;;24.70;99.90;;;;;;5026652;28;20196;-51
2022/05/09 11:56:18;;;;;;;5.70;2.83;;;24.50;99.90;;;;;;5024536;28;20854;-51
2022/05/09 11:58:45;;;;;;;6.80;3.47;;;25.00;99.90;;;;;;5022711;28;20250;-53
2022/05/09 12:01:12;;;;;;;6.53;3.20;;;24.90;99.90;;;;;;5019596;28;20242;-52
2022/05/09 12:03:42;;;;;;;7.17;3.23;;;24.70;99.90;;;;;;5017859;28;20345;-52
2022/05/09 12:06:35;;;;;;;7.37;3.77;;;24.60;99.90;;;;;;5013688;28;20284;-52
2022/05/09 12:09:08;;;;;;;5.70;3.90;;;24.30;99.90;;;;;;5015480;28;20287;-52
2022/05/09 12:11:47;;;;;;;6.20;3.40;;;24.60;99.90;;;;;;5018597;28;20296;-52
2022/05/09 12:14:43;;;;;;;5.83;3.07;;;25.20;99.90;;;;;;5022836;28;20311;-52
2022/05/09 12:17:31;;;;;;;6.53;3.60;;;25.10;99.90;;;;;;5017851;28;20250;-53
2022/05/09 12:19:58;;;;;;;7.43;3.80;;;25.10;99.90;;;;;;5020912;28;20213;-53
2022/05/09 12:22:47;;;;;;;7.37;3.50;;;25.40;99.90;;;;;;5013931;28;20251;-53
2022/05/09 12:25:34;;;;;;;10.00;3.63;;;25.10;99.90;;;;;;5018426;28;20197;-52
2022/05/09 12:28:26;;;;;;;7.30;3.93;;;24.40;99.90;;;;;;5017373;28;20244;-55
2022/05/09 12:30:56;;;;;;;6.23;3.67;;;24.40;99.90;;;;;;5013044;28;20264;-53
2022/05/09 12:33:28;;;;;;;6.77;3.67;;;25.40;99.90;;;;;;5018719;28;20228;-53
2022/05/09 12:35:59;;;;;;;5.33;3.70;;;24.90;99.90;;;;;;5018736;28;20279;-53
2022/05/09 12:38:33;;;;;;;5.97;3.93;;;25.00;99.90;;;;;;5012357;28;20661;-54
2022/05/09 12:41:09;;;;;;;8.80;3.97;;;25.30;99.90;;;;;;5019765;28;20295;-53
2022/05/09 12:43:38;;;;;;;6.07;3.80;;;25.20;99.90;;;;;;5014849;28;20231;-53
2022/05/09 12:46:07;;;;;;;6.67;3.10;;;25.20;99.90;;;;;;5023347;28;20205;-52
2022/05/09 12:48:38;;;;;;;5.87;3.27;;;25.60;99.90;;;;;;5018762;28;20300;-53
2022/05/09 12:51:09;;;;;;;9.00;3.90;;;25.30;99.90;;;;;;5016091;28;20265;-56
2022/05/09 12:53:37;;;;;;;9.80;3.73;;;25.00;99.90;;;;;;5022756;28;20274;-54
2022/05/09 12:56:22;;;;;;;7.10;3.13;;;25.50;99.90;;;;;;5016484;28;20263;-53
2022/05/09 12:59:05;;;;;;;7.23;3.13;;;25.20;99.90;;;;;;5017667;28;20266;-54
2022/05/09 13:01:32;;;;;;;5.80;3.20;;;25.00;99.90;;;;;;5028193;28;20205;-53
2022/05/09 13:04:32;;;;;;;6.90;3.03;;;25.90;99.90;;;;;;5017588;28;20875;-53
2022/05/09 13:07:05;;;;;;;7.57;2.87;;;25.80;99.90;;;;;;5030108;28;20206;-53
2022/05/09 13:09:35;;;;;;;5.33;2.53;;;25.50;99.90;;;;;;5014284;28;20915;-53
2022/05/09 13:12:13;;;;;;;4.60;2.40;;;25.70;99.90;;;;;;5017207;28;20296;-53
2022/05/09 13:14:45;;;;;;;5.63;3.00;;;25.60;99.90;;;;;;5022161;28;20290;-53
2022/05/09 13:17:36;;;;;;;4.47;2.77;;;25.30;99.90;;;;;;5026171;28;20195;-53
2022/05/09 13:20:23;;;;;;;6.57;2.83;;;25.80;99.90;;;;;;5017163;28;20217;-53
2022/05/09 13:22:51;;;;;;;5.67;4.20;;;25.70;99.90;;;;;;5028623;28;20234;-54